Terminal Aerodrome Forecast
Issued by NWS Topeka, KS

Home | Current Version | Previous Version | Text Only | Print | Product List | Glossary Off
Versions: 1 2 3 4 5 6 7 8 9 10 11 12 13 14 15 16 17 18 19

000
FTUS43 KTOP 222100 AAB
TAFTOP
TAF AMD
KTOP 222143Z 2222/2318 03004KT P6SM OVC030
      TEMPO 2222/2224 SCT028 OVC035
     FM230000 00000KT P6SM FEW035
     FM231600 21006KT P6SM SKC=

USA.gov is the U.S. government's official web portal to all federal, state and local government web resources and services.